Time;durP1;ratioP1;P1;durP2;ratioP2;P2;SDS_P1;SDS_P2;PMS_P1;PMS_P2;Temp;Humidity;BMP_temperature;BMP_pressure;BME280_temperature;BME280_humidity;BME280_pressure;Samples;Min_cycle;Max_cycle;Signal;HPM_P1;HPM_P2
2021/07/03 00:01:00;;;;;;;17.23;7.60;;;;;;;20.50;92.07;99225.73;1764064;81;21288;-78
2021/07/03 00:04:06;;;;;;;19.62;7.15;;;;;;;20.50;92.08;99224.34;1764127;81;21217;-78
2021/07/03 00:07:12;;;;;;;20.72;6.97;;;;;;;20.53;92.02;99220.20;1762666;81;21237;-79
2021/07/03 00:10:18;;;;;;;15.45;7.08;;;;;;;20.51;91.74;99217.67;1763974;81;21288;-78
2021/07/03 00:13:24;;;;;;;24.67;7.05;;;;;;;20.44;91.74;99222.61;1763178;81;21934;-78
2021/07/03 00:16:29;;;;;;;13.72;6.17;;;;;;;20.36;92.07;99217.54;1762946;81;21217;-78
2021/07/03 00:19:36;;;;;;;16.80;6.90;;;;;;;20.33;92.48;99217.54;1762786;81;21181;-78
2021/07/03 00:22:42;;;;;;;24.60;6.83;;;;;;;20.34;92.62;99216.43;1762692;81;21240;-78
2021/07/03 00:25:48;;;;;;;15.55;7.28;;;;;;;20.37;92.60;99215.91;1763627;81;21362;-78
2021/07/03 00:28:53;;;;;;;17.10;6.70;;;;;;;20.34;92.53;99205.32;1762887;81;21330;-77
2021/07/03 00:31:58;;;;;;;20.05;7.62;;;;;;;20.29;92.58;99207.23;1764038;81;21182;-78
2021/07/03 00:35:05;;;;;;;14.75;7.30;;;;;;;20.22;92.84;99203.83;1764117;81;21905;-79
2021/07/03 00:38:11;;;;;;;20.30;7.28;;;;;;;20.15;93.31;99188.80;1765080;81;21269;-78
2021/07/03 00:41:16;;;;;;;24.75;7.95;;;;;;;20.12;93.75;99187.38;1765064;81;21791;-78
2021/07/03 00:44:39;;;;;;;18.55;7.20;;;;;;;20.13;93.95;99182.66;1764309;81;21221;-78
2021/07/03 00:47:42;;;;;;;24.15;7.45;;;;;;;20.14;93.98;99181.59;1686624;85;21315;-78
2021/07/03 00:50:46;;;;;;;19.12;7.45;;;;;;;20.14;93.96;99185.75;1705305;83;21371;-78
2021/07/03 00:53:51;;;;;;;19.70;7.47;;;;;;;20.08;94.20;99183.46;1706059;84;21278;-78
2021/07/03 00:57:02;;;;;;;15.10;7.28;;;;;;;20.06;94.47;99182.07;1706019;84;21736;-78
2021/07/03 01:00:07;;;;;;;19.20;7.15;;;;;;;20.03;94.69;99177.87;1706047;84;21804;-78
2021/07/03 01:03:13;;;;;;;19.45;7.67;;;;;;;19.99;95.04;99174.50;1706053;84;21324;-78
2021/07/03 01:06:18;;;;;;;24.92;7.85;;;;;;;19.95;95.52;99182.55;1704776;84;21324;-77
2021/07/03 01:09:26;;;;;;;21.45;7.55;;;;;;;19.93;96.14;99176.97;1705029;84;21903;-78
2021/07/03 01:12:32;;;;;;;28.15;7.67;;;;;;;19.94;96.38;99179.46;1705068;84;21332;-78
2021/07/03 01:15:37;;;;;;;15.60;6.97;;;;;;;19.94;96.47;99177.24;1705991;84;21801;-78
2021/07/03 01:18:42;;;;;;;19.62;7.03;;;;;;;19.92;96.31;99178.91;1706014;84;21265;-78
2021/07/03 01:21:50;;;;;;;18.98;6.80;;;;;;;19.87;96.72;99170.54;1706017;84;21812;-78
2021/07/03 01:24:55;;;;;;;15.43;7.47;;;;;;;19.85;97.09;99178.27;1705138;84;21201;-77
2021/07/03 01:28:10;;;;;;;20.90;7.78;;;;;;;19.81;97.50;99178.55;1705310;84;22006;-78
2021/07/03 01:31:15;;;;;;;22.95;7.28;;;;;;;19.82;97.98;99180.21;1705151;84;21871;-77
2021/07/03 01:34:25;;;;;;;22.98;7.03;;;;;;;19.81;98.23;99184.09;1705083;84;21850;-78
2021/07/03 01:37:32;;;;;;;21.30;7.03;;;;;;;19.80;98.60;99190.72;1704345;84;21391;-78
2021/07/03 01:40:38;;;;;;;26.35;7.37;;;;;;;19.83;98.90;99192.98;1705155;84;21186;-78
2021/07/03 01:43:47;;;;;;;14.40;6.62;;;;;;;19.86;99.19;99193.30;1703729;84;21232;-78
2021/07/03 01:46:52;;;;;;;20.37;7.78;;;;;;;19.93;99.34;99195.84;1703657;84;21320;-78
2021/07/03 01:49:58;;;;;;;21.17;7.17;;;;;;;19.96;99.27;99198.09;1704992;83;21311;-78
2021/07/03 01:53:03;;;;;;;22.05;6.78;;;;;;;19.98;99.16;99202.81;1689919;85;21319;-78
2021/07/03 01:56:09;;;;;;;20.90;7.20;;;;;;;19.96;99.32;99202.25;1691302;85;21382;-77
2021/07/03 01:59:16;;;;;;;11.40;6.10;;;;;;;19.97;99.62;99195.59;1691057;85;21351;-78
2021/07/03 02:02:23;;;;;;;22.80;6.87;;;;;;;19.99;99.97;99198.93;1691703;85;21359;-78
2021/07/03 02:05:29;;;;;;;17.40;6.72;;;;;;;20.06;100.00;99206.50;1691352;85;21216;-78
2021/07/03 02:08:36;;;;;;;15.75;6.45;;;;;;;20.11;100.00;99199.59;1691346;85;21357;-78
2021/07/03 02:11:42;;;;;;;15.23;6.60;;;;;;;20.15;100.00;99197.97;1691079;85;21814;-77
2021/07/03 02:14:49;;;;;;;19.52;6.97;;;;;;;20.23;99.92;99198.03;1690920;85;22012;-78
2021/07/03 02:17:56;;;;;;;13.15;6.42;;;;;;;20.30;99.25;99192.23;1690430;85;21914;-79
2021/07/03 02:21:02;;;;;;;19.67;6.58;;;;;;;20.36;98.57;99186.99;1692075;85;21367;-78
2021/07/03 02:24:07;;;;;;;21.48;6.12;;;;;;;20.40;97.67;99192.30;1692239;85;21280;-79
2021/07/03 02:27:13;;;;;;;11.05;5.72;;;;;;;20.45;97.24;99195.11;1692286;85;21890;-79
2021/07/03 02:30:22;;;;;;;13.65;6.30;;;;;;;20.50;96.48;99187.39;1692228;85;21922;-79
2021/07/03 02:33:27;;;;;;;26.17;6.83;;;;;;;20.55;95.89;99189.64;1692261;85;21280;-78
2021/07/03 02:36:33;;;;;;;24.67;6.60;;;;;;;20.59;95.37;99185.23;1692189;85;21291;-79
2021/07/03 02:39:38;;;;;;;23.22;6.30;;;;;;;20.63;94.89;99191.92;1692220;85;21287;-78
2021/07/03 02:42:44;;;;;;;18.35;5.75;;;;;;;20.65;94.36;99195.28;1692234;85;21295;-79
2021/07/03 02:45:50;;;;;;;19.02;5.65;;;;;;;20.64;94.07;99186.64;1690659;85;21378;-78
2021/07/03 02:48:56;;;;;;;15.88;5.83;;;;;;;20.66;93.84;99187.78;1690378;85;21327;-79
2021/07/03 02:52:03;;;;;;;17.77;6.45;;;;;;;20.71;93.56;99196.14;1700959;83;21538;-78
2021/07/03 02:55:09;;;;;;;22.42;7.45;;;;;;;20.70;93.19;99194.45;1712299;83;21870;-78
2021/07/03 02:58:16;;;;;;;12.75;5.80;;;;;;;20.70;92.97;99200.56;1712880;83;21362;-79
2021/07/03 03:01:22;;;;;;;11.70;5.35;;;;;;;20.67;92.83;99196.39;1712632;83;21810;-79
2021/07/03 03:04:30;;;;;;;16.10;6.22;;;;;;;20.64;92.94;99192.75;1713668;83;21219;-78
2021/07/03 03:07:36;;;;;;;19.98;5.92;;;;;;;20.62;92.88;99190.25;1712252;83;21315;-78
2021/07/03 03:10:42;;;;;;;21.10;6.42;;;;;;;20.62;92.85;99184.70;1712246;83;21351;-79
2021/07/03 03:13:48;;;;;;;20.65;6.83;;;;;;;20.64;92.84;99195.53;1714568;83;21296;-78
2021/07/03 03:16:53;;;;;;;22.02;7.08;;;;;;;20.63;92.90;99190.53;1714616;83;21326;-78
2021/07/03 03:20:00;;;;;;;15.85;5.72;;;;;;;20.63;93.10;99187.75;1714551;83;21177;-79
2021/07/03 03:23:05;;;;;;;13.32;6.20;;;;;;;20.70;93.12;99190.28;1714629;83;21280;-78
2021/07/03 03:26:04;;;;;;;16.03;6.23;;;;;;;20.74;93.09;99189.20;1714862;83;21220;-79
2021/07/03 03:29:10;;;;;;;17.98;6.35;;;;;;;20.80;93.09;99183.97;1714622;83;21804;-79
2021/07/03 03:32:16;;;;;;;17.27;6.50;;;;;;;20.87;92.98;99178.98;1714556;83;21839;-79
2021/07/03 03:35:22;;;;;;;34.98;7.33;;;;;;;20.97;93.04;99167.07;1714575;83;21173;-79
2021/07/03 03:38:27;;;;;;;28.73;7.22;;;;;;;21.12;92.70;99155.44;1714595;83;21303;-79
2021/07/03 03:41:33;;;;;;;27.73;7.28;;;;;;;21.33;91.88;99146.64;1714624;83;21320;-79
2021/07/03 03:44:38;;;;;;;12.75;6.87;;;;;;;21.52;90.88;99142.78;1714580;83;21705;-79
2021/07/03 03:47:43;;;;;;;17.90;7.12;;;;;;;21.76;90.13;99140.84;1713605;83;21346;-79
2021/07/03 03:50:48;;;;;;;26.10;7.87;;;;;;;22.12;89.30;99145.33;1713614;83;21330;-79
2021/07/03 03:53:55;;;;;;;24.05;7.12;;;;;;;22.43;87.03;99152.22;1696109;83;21262;-79
2021/07/03 04:00:27;;;;;;;22.67;7.58;;;;;;;22.55;84.76;99166.69;1691217;85;21323;-79
2021/07/03 04:03:32;;;;;;;13.80;6.67;;;;;;;22.58;84.52;99170.28;1691217;85;21323;-79
2021/07/03 04:06:39;;;;;;;16.77;7.28;;;;;;;22.66;84.79;99163.30;1691318;85;21193;-79
2021/07/03 04:09:45;;;;;;;31.25;7.00;;;;;;;22.73;84.44;99159.67;1689951;85;21307;-79
2021/07/03 04:12:45;;;;;;;22.35;7.42;;;;;;;22.84;84.18;99158.50;1690509;85;21363;-79
2021/07/03 04:15:50;;;;;;;15.45;7.47;;;;;;;23.07;83.21;99159.83;1691226;85;21264;-79
2021/07/03 04:18:56;;;;;;;18.17;7.55;;;;;;;23.38;82.04;99163.84;1690806;85;21225;-79
2021/07/03 04:22:02;;;;;;;16.95;7.00;;;;;;;23.68;80.46;99165.08;1690121;85;21276;-78
2021/07/03 04:25:11;;;;;;;16.90;7.60;;;;;;;23.89;78.91;99164.91;1691441;85;21323;-79
2021/07/03 04:28:15;;;;;;;15.23;7.58;;;;;;;23.98;78.28;99165.95;1691596;85;21979;-79
2021/07/03 04:31:21;;;;;;;16.75;7.42;;;;;;;23.91;77.68;99155.13;1691304;85;21335;-79
2021/07/03 04:34:26;;;;;;;19.23;7.35;;;;;;;23.84;77.93;99161.59;1691270;85;21201;-78
2021/07/03 04:37:32;;;;;;;24.90;7.42;;;;;;;23.82;78.37;99164.42;1691283;85;21374;-78
2021/07/03 04:40:37;;;;;;;15.35;7.05;;;;;;;23.83;77.85;99174.46;1692212;85;21359;-78
2021/07/03 04:43:42;;;;;;;15.18;7.70;;;;;;;23.87;77.84;99204.30;1692194;85;21216;-79
2021/07/03 04:46:47;;;;;;;22.40;9.08;;;;;;;23.75;78.07;99200.20;1692130;85;21319;-78
2021/07/03 04:49:53;;;;;;;23.10;8.55;;;;;;;23.57;79.73;99205.33;1690866;85;21771;-78
2021/07/03 04:52:59;;;;;;;22.32;8.65;;;;;;;23.45;80.80;99205.66;1691372;85;21335;-78
2021/07/03 04:56:05;;;;;;;19.02;8.70;;;;;;;23.28;82.03;99194.02;1691351;85;21256;-78
2021/07/03 04:59:11;;;;;;;19.23;8.95;;;;;;;23.08;82.63;99199.14;1689924;85;21245;-79
2021/07/03 05:02:19;;;;;;;13.88;7.45;;;;;;;22.94;83.45;99193.91;1691090;85;21343;-78
2021/07/03 05:05:24;;;;;;;22.05;7.85;;;;;;;22.83;83.24;99197.83;1691613;85;21327;-78
2021/07/03 05:08:30;;;;;;;15.95;7.90;;;;;;;22.74;83.78;99210.67;1691272;85;21319;-78
2021/07/03 05:11:35;;;;;;;13.00;7.30;;;;;;;22.61;83.82;99203.17;1691133;85;21964;-78
2021/07/03 05:14:42;;;;;;;15.23;7.83;;;;;;;22.52;84.47;99194.27;1689886;85;21786;-78
2021/07/03 05:17:48;;;;;;;15.78;8.08;;;;;;;22.48;85.19;99195.39;1690920;85;21410;-78
2021/07/03 05:20:54;;;;;;;16.48;8.33;;;;;;;22.40;85.45;99193.20;1690319;85;21897;-78
2021/07/03 05:24:01;;;;;;;16.23;7.65;;;;;;;22.36;86.12;99187.91;1691258;85;21327;-77
2021/07/03 05:27:06;;;;;;;16.12;7.75;;;;;;;22.34;87.25;99170.06;1691382;85;22015;-78
2021/07/03 05:30:12;;;;;;;19.30;8.38;;;;;;;22.36;88.46;99166.45;1690852;85;21220;-78
2021/07/03 05:33:17;;;;;;;20.82;8.65;;;;;;;22.40;88.13;99166.73;1690740;85;21236;-78
2021/07/03 05:36:23;;;;;;;18.73;7.90;;;;;;;22.46;87.84;99169.77;1691438;85;21909;-78
2021/07/03 05:39:31;;;;;;;27.55;7.62;;;;;;;22.57;87.82;99187.30;1692171;85;21879;-78
2021/07/03 05:42:35;;;;;;;18.87;7.12;;;;;;;22.65;87.15;99205.67;1692219;85;21248;-78
2021/07/03 05:45:41;;;;;;;20.97;7.55;;;;;;;22.71;87.00;99205.92;1692192;85;21324;-78
2021/07/03 05:48:48;;;;;;;21.52;7.80;;;;;;;22.78;87.46;99200.63;1692190;85;21319;-79
2021/07/03 05:51:53;;;;;;;18.35;7.20;;;;;;;22.86;87.36;99189.70;1691817;85;21323;-78
2021/07/03 05:54:59;;;;;;;17.12;7.97;;;;;;;22.90;87.22;99176.91;1691589;84;21366;-78
2021/07/03 05:58:05;;;;;;;14.33;7.37;;;;;;;22.97;86.95;99174.39;1692199;85;21296;-78
2021/07/03 06:01:10;;;;;;;18.62;7.17;;;;;;;23.07;86.68;99165.41;1692034;85;21311;-78
2021/07/03 06:04:15;;;;;;;20.45;7.47;;;;;;;23.23;86.37;99163.37;1690274;85;21953;-78
2021/07/03 06:07:15;;;;;;;15.43;7.75;;;;;;;23.41;85.29;99161.88;1691265;85;21212;-78
2021/07/03 06:10:07;;;;;;;17.48;7.20;;;;;;;23.61;85.10;99168.71;1690033;85;21823;-78
2021/07/03 06:13:12;;;;;;;17.50;7.22;;;;;;;23.79;83.86;99165.00;1691127;85;21335;-78
2021/07/03 06:16:17;;;;;;;15.68;7.90;;;;;;;24.00;83.03;99169.87;1691144;85;21299;-79
2021/07/03 06:19:24;;;;;;;19.95;7.65;;;;;;;24.15;81.72;99169.16;1690479;85;21342;-78
2021/07/03 06:22:30;;;;;;;15.30;7.95;;;;;;;24.33;81.17;99166.20;1691245;85;21331;-78
2021/07/03 06:25:37;;;;;;;12.37;7.47;;;;;;;24.50;79.47;99172.75;1691280;85;21604;-78
2021/07/03 06:28:43;;;;;;;13.10;7.17;;;;;;;24.52;78.80;99181.70;1691253;85;21327;-78
2021/07/03 06:31:49;;;;;;;17.02;6.90;;;;;;;24.53;78.95;99190.91;1690370;85;21315;-78
2021/07/03 06:34:54;;;;;;;20.55;7.08;;;;;;;24.52;79.20;99190.08;1690290;85;21335;-78
2021/07/03 06:37:54;;;;;;;15.48;6.97;;;;;;;24.45;79.32;99193.77;1691475;85;21330;-78
2021/07/03 06:41:00;;;;;;;21.70;7.03;;;;;;;24.33;79.60;99199.73;1691179;85;21653;-78
2021/07/03 06:44:05;;;;;;;15.25;7.83;;;;;;;24.20;79.96;99197.62;1691268;85;21326;-78
2021/07/03 06:47:11;;;;;;;16.95;7.33;;;;;;;24.15;81.17;99194.30;1691332;85;21327;-78
2021/07/03 06:50:19;;;;;;;19.20;6.95;;;;;;;24.18;81.40;99199.31;1689828;85;21268;-78
2021/07/03 06:53:24;;;;;;;13.93;7.05;;;;;;;24.22;82.39;99182.78;1691653;85;21367;-78
2021/07/03 06:56:31;;;;;;;15.43;7.65;;;;;;;24.32;82.87;99189.66;1701431;83;21359;-78
2021/07/03 06:59:37;;;;;;;16.10;7.67;;;;;;;24.38;81.96;99191.90;1713693;83;22522;-78
2021/07/03 07:02:42;;;;;;;16.27;6.90;;;;;;;24.34;81.67;99193.58;1712379;83;21280;-77
2021/07/03 07:05:49;;;;;;;17.62;6.85;;;;;;;24.32;82.35;99205.59;1713363;83;21335;-78
2021/07/03 07:08:56;;;;;;;15.95;7.70;;;;;;;24.36;81.32;99205.28;1713651;83;21327;-78
2021/07/03 07:12:02;;;;;;;11.93;6.50;;;;;;;24.33;81.41;99202.53;1712837;83;21378;-78
2021/07/03 07:15:08;;;;;;;14.15;7.33;;;;;;;24.31;81.25;99198.34;1712091;83;21209;-78
2021/07/03 07:18:14;;;;;;;18.07;7.45;;;;;;;24.30;80.45;99182.72;1713656;83;21319;-78
2021/07/03 07:21:19;;;;;;;13.70;6.83;;;;;;;24.35;80.24;99183.50;1713328;83;21335;-78
2021/07/03 07:24:25;;;;;;;17.37;6.60;;;;;;;24.43;79.99;99184.86;1713694;83;21331;-78
2021/07/03 07:27:31;;;;;;;13.62;7.15;;;;;;;24.45;80.71;99186.78;1713691;83;21886;-78
2021/07/03 07:30:36;;;;;;;13.72;6.22;;;;;;;24.52;81.08;99197.64;1712316;83;21383;-78
2021/07/03 07:33:41;;;;;;;10.93;5.90;;;;;;;24.50;79.34;99178.34;1712247;83;21362;-78
2021/07/03 07:36:46;;;;;;;18.77;6.37;;;;;;;24.55;79.73;99180.25;1713587;83;21307;-78
2021/07/03 07:39:51;;;;;;;9.28;5.72;;;;;;;24.68;78.09;99172.00;1714554;83;21169;-78
2021/07/03 07:42:57;;;;;;;14.05;6.00;;;;;;;24.84;76.89;99178.80;1714580;83;21200;-78
2021/07/03 07:46:02;;;;;;;11.73;6.45;;;;;;;25.03;77.05;99179.72;1714029;83;21368;-78
2021/07/03 07:49:07;;;;;;;12.73;5.62;;;;;;;25.26;75.47;99182.22;1713743;83;21316;-78
2021/07/03 07:52:13;;;;;;;13.50;5.83;;;;;;;25.42;74.00;99181.46;1713068;83;21319;-78
2021/07/03 07:55:20;;;;;;;12.05;5.30;;;;;;;25.52;72.98;99186.91;1713620;83;21256;-78
2021/07/03 07:58:26;;;;;;;9.70;5.33;;;;;;;25.56;72.70;99191.34;1711368;83;21359;-78
2021/07/03 08:01:32;;;;;;;9.75;5.55;;;;;;;25.52;72.48;99201.48;1712221;83;21380;-78
2021/07/03 08:04:37;;;;;;;11.05;5.30;;;;;;;25.29;73.30;99219.41;1713716;83;21315;-78
2021/07/03 08:07:43;;;;;;;7.30;4.67;;;;;;;25.10;72.10;99239.52;1713659;83;21756;-78
2021/07/03 08:10:48;;;;;;;8.85;4.85;;;;;;;24.81;70.87;99229.19;1713694;83;21251;-78
2021/07/03 08:13:55;;;;;;;11.15;4.87;;;;;;;24.60;72.52;99224.36;1712352;83;21248;-78
2021/07/03 08:17:02;;;;;;;11.45;6.40;;;;;;;24.46;72.21;99241.55;1712244;83;21212;-78
2021/07/03 08:20:08;;;;;;;10.25;5.87;;;;;;;24.23;72.62;99240.34;1712436;83;21375;-78
2021/07/03 08:23:14;;;;;;;14.95;7.37;;;;;;;24.05;74.10;99244.67;1712274;83;21422;-78
2021/07/03 08:26:20;;;;;;;13.88;7.50;;;;;;;23.76;75.38;99243.20;1713797;83;21316;-78
2021/07/03 08:29:25;;;;;;;11.75;7.00;;;;;;;23.63;77.85;99235.43;1713786;83;21240;-78
2021/07/03 08:32:30;;;;;;;13.28;6.30;;;;;;;23.61;78.70;99232.91;1713460;83;21323;-78
2021/07/03 08:35:37;;;;;;;16.32;6.35;;;;;;;23.60;79.08;99241.02;1713620;83;21346;-78
2021/07/03 08:38:44;;;;;;;13.45;6.87;;;;;;;23.57;79.12;99238.81;1713757;83;21834;-79
2021/07/03 08:41:49;;;;;;;13.80;6.67;;;;;;;23.64;78.64;99249.13;1713761;83;21243;-78
2021/07/03 08:44:57;;;;;;;11.00;5.10;;;;;;;23.67;78.55;99245.77;1713605;83;21319;-78
2021/07/03 08:48:03;;;;;;;13.72;5.95;;;;;;;23.59;77.52;99244.10;1714654;83;21177;-78
2021/07/03 08:51:08;;;;;;;11.03;5.35;;;;;;;23.54;77.54;99235.76;1713621;83;21382;-78
2021/07/03 08:54:14;;;;;;;10.68;5.58;;;;;;;23.45;78.13;99249.48;1712499;83;21367;-78
2021/07/03 08:57:20;;;;;;;12.45;5.85;;;;;;;23.40;78.31;99264.84;1712383;83;21784;-78
2021/07/03 09:00:42;;;;;;;8.95;5.33;;;;;;;23.34;78.72;99254.84;1713663;83;21347;-78
2021/07/03 09:03:47;;;;;;;11.50;5.62;;;;;;;23.29;77.33;99230.59;1713593;83;21354;-78
2021/07/03 09:06:53;;;;;;;10.30;5.28;;;;;;;23.40;79.05;99232.77;1706576;84;21945;-79
2021/07/03 09:09:59;;;;;;;11.93;5.00;;;;;;;23.53;76.47;99237.72;1771202;81;21826;-78
2021/07/03 09:13:05;;;;;;;12.82;5.12;;;;;;;23.62;75.80;99234.59;1769864;81;21861;-78
2021/07/03 09:16:10;;;;;;;10.88;5.08;;;;;;;23.80;77.75;99244.83;1705118;84;21306;-78
2021/07/03 09:19:17;;;;;;;10.32;4.55;;;;;;;23.87;76.23;99237.81;1769719;81;21193;-78
2021/07/03 09:22:22;;;;;;;8.90;4.22;;;;;;;23.92;75.63;99235.55;1770292;81;21367;-78
2021/07/03 09:25:28;;;;;;;10.53;4.65;;;;;;;24.02;75.01;99233.23;1771076;81;21374;-78
2021/07/03 09:28:39;;;;;;;20.70;5.25;;;;;;;24.15;74.80;99230.63;1771959;81;21304;-79
2021/07/03 09:31:45;;;;;;;8.98;4.92;;;;;;;24.33;73.92;99234.66;1771385;81;21295;-78
2021/07/03 09:34:50;;;;;;;10.38;4.55;;;;;;;24.43;71.58;99225.39;1688122;84;21323;-79
2021/07/03 09:37:55;;;;;;;9.00;4.30;;;;;;;24.42;72.20;99218.14;1770857;81;21624;-79
2021/07/03 09:41:01;;;;;;;11.30;4.12;;;;;;;24.52;72.24;99213.84;1705097;84;21320;-79
2021/07/03 09:44:11;;;;;;;11.43;4.22;;;;;;;24.58;69.48;99207.63;1753971;81;21893;-79
2021/07/03 09:47:18;;;;;;;9.95;4.33;;;;;;;24.64;68.48;99209.23;1772318;81;21784;-79
2021/07/03 09:50:25;;;;;;;15.88;4.30;;;;;;;24.57;67.59;99201.77;1691261;84;21323;-79
2021/07/03 09:53:31;;;;;;;8.50;4.28;;;;;;;24.53;69.54;99196.50;1754470;81;21382;-79
2021/07/03 09:56:37;;;;;;;11.57;3.75;;;;;;;24.64;70.76;99190.49;1704989;84;21827;-79
2021/07/03 09:59:44;;;;;;;9.00;4.00;;;;;;;24.76;69.41;99190.09;1769437;81;21314;-78
2021/07/03 10:02:49;;;;;;;7.28;3.85;;;;;;;24.86;69.16;99179.36;1771305;81;21299;-78
2021/07/03 10:05:57;;;;;;;7.45;3.77;;;;;;;25.01;70.53;99179.73;1771213;81;21295;-79
2021/07/03 10:09:14;;;;;;;8.88;4.20;;;;;;;25.04;69.61;99164.59;1771410;81;21338;-78
2021/07/03 10:12:23;;;;;;;10.23;3.83;;;;;;;25.05;69.14;99157.03;1770302;81;21377;-78
2021/07/03 10:15:37;;;;;;;11.95;4.78;;;;;;;25.11;68.96;99144.09;1703890;84;21209;-78
2021/07/03 10:18:42;;;;;;;10.25;4.62;;;;;;;25.16;68.19;99132.83;1771783;81;21350;-78
2021/07/03 10:21:52;;;;;;;7.50;3.87;;;;;;;25.21;70.07;99126.33;1769828;81;21358;-78
2021/07/03 10:25:01;;;;;;;9.28;3.83;;;;;;;25.30;69.09;99127.32;1704059;84;21336;-78
2021/07/03 10:28:07;;;;;;;9.95;4.00;;;;;;;25.40;68.00;99117.37;1770030;81;21295;-78
2021/07/03 10:31:20;;;;;;;8.83;4.05;;;;;;;25.48;67.64;99120.06;1771268;81;21375;-78
2021/07/03 10:34:39;;;;;;;9.48;3.77;;;;;;;25.55;67.93;99131.73;1772095;81;21836;-78
2021/07/03 10:37:45;;;;;;;8.68;4.25;;;;;;;25.65;67.47;99156.77;1772108;81;21303;-78
2021/07/03 10:40:45;;;;;;;8.33;3.92;;;;;;;25.69;66.26;99172.39;1772101;81;21276;-79
2021/07/03 10:43:58;;;;;;;13.85;4.10;;;;;;;25.67;66.24;99175.48;1771984;81;21802;-79
2021/07/03 10:47:09;;;;;;;14.25;3.67;;;;;;;25.66;65.36;99169.62;1732918;82;21374;-80
2021/07/03 10:50:36;;;;;;;13.40;3.72;;;;;;;25.62;65.65;99163.53;1794132;79;21377;-80
2021/07/03 10:53:42;;;;;;;7.62;4.40;;;;;;;25.52;66.23;99169.28;1771763;81;21335;-80
2021/07/03 10:57:03;;;;;;;11.25;4.12;;;;;;;25.47;67.26;99179.99;1770947;81;21303;-79
2021/07/03 11:00:11;;;;;;;7.00;3.42;;;;;;;25.46;67.05;99189.53;1770674;80;21346;-80
2021/07/03 11:03:24;;;;;;;8.35;3.60;;;;;;;25.46;66.53;99188.95;1779952;80;21196;-79
2021/07/03 11:06:30;;;;;;;8.90;3.77;;;;;;;25.39;66.17;99197.45;1779696;80;21275;-80
2021/07/03 11:09:37;;;;;;;7.22;3.30;;;;;;;25.32;66.98;99202.03;1779367;80;21295;-79
2021/07/03 11:13:03;;;;;;;11.50;4.00;;;;;;;25.26;66.11;99210.20;1779623;79;21355;-79
2021/07/03 11:16:10;;;;;;;6.10;3.08;;;;;;;25.11;65.12;99208.44;1777637;80;21323;-79
2021/07/03 11:19:16;;;;;;;12.73;3.22;;;;;;;24.97;64.57;99203.27;1777917;80;21351;-79
2021/07/03 11:22:22;;;;;;;14.58;3.50;;;;;;;24.90;65.28;99209.23;1779252;80;21304;-79
2021/07/03 11:25:50;;;;;;;7.45;3.20;;;;;;;24.87;65.61;99211.78;1780292;80;21732;-79
2021/07/03 11:29:01;;;;;;;9.95;3.10;;;;;;;24.93;65.96;99220.38;1778720;80;21152;-79
2021/07/03 11:32:14;;;;;;;9.03;3.50;;;;;;;24.98;65.51;99221.71;1780417;80;21273;-79
2021/07/03 11:35:19;;;;;;;8.70;3.10;;;;;;;24.92;64.80;99213.95;1780409;80;21299;-80
2021/07/03 11:38:28;;;;;;;11.15;3.22;;;;;;;24.88;65.37;99180.70;1780347;80;21264;-79
2021/07/03 11:41:34;;;;;;;8.68;2.77;;;;;;;24.89;63.59;99203.38;1780549;80;21255;-80
2021/07/03 11:44:39;;;;;;;8.50;2.95;;;;;;;24.88;65.68;99196.66;1780352;80;21782;-79
2021/07/03 11:47:55;;;;;;;8.65;2.62;;;;;;;24.89;65.25;99175.95;1780435;80;21664;-79
2021/07/03 11:51:06;;;;;;;7.78;3.20;;;;;;;24.84;64.40;99172.67;1780410;80;21303;-79
2021/07/03 11:54:12;;;;;;;8.73;2.95;;;;;;;24.78;64.12;99168.82;1779446;80;21878;-79
2021/07/03 11:57:17;;;;;;;4.67;2.42;;;;;;;24.65;64.22;99158.60;1779629;80;21304;-79
2021/07/03 12:00:31;;;;;;;6.40;3.08;;;;;;;24.59;64.11;99164.56;1779727;80;21165;-79
2021/07/03 12:03:40;;;;;;;7.95;3.00;;;;;;;24.51;65.09;99181.41;1779583;80;21747;-80
2021/07/03 12:06:45;;;;;;;9.00;2.92;;;;;;;24.46;65.65;99192.64;1778532;80;21350;-80
2021/07/03 12:09:51;;;;;;;7.58;2.85;;;;;;;24.38;65.37;99189.11;1778892;80;21353;-79
2021/07/03 12:13:00;;;;;;;12.35;3.47;;;;;;;24.23;66.60;99190.89;1778082;80;21220;-79
2021/07/03 12:16:11;;;;;;;6.85;2.95;;;;;;;24.10;67.12;99181.78;1779179;80;21295;-79
2021/07/03 12:19:16;;;;;;;7.55;2.90;;;;;;;23.92;67.29;99167.96;1779441;80;21772;-78
2021/07/03 12:22:23;;;;;;;4.97;2.30;;;;;;;23.74;67.81;99176.20;1779347;80;21342;-78
2021/07/03 12:25:28;;;;;;;5.35;2.85;;;;;;;23.57;68.99;99183.53;1754958;80;21216;-78
2021/07/03 12:28:33;;;;;;;7.15;3.20;;;;;;;23.42;68.96;99198.41;1779569;80;21295;-78
2021/07/03 12:31:44;;;;;;;8.13;2.85;;;;;;;23.23;70.27;99193.22;1779584;80;21299;-79
2021/07/03 12:34:49;;;;;;;6.12;2.58;;;;;;;23.07;70.04;99202.23;1780391;80;21316;-78
2021/07/03 12:37:54;;;;;;;8.70;3.05;;;;;;;22.90;68.64;99186.66;1780419;80;21263;-78
2021/07/03 12:41:00;;;;;;;8.88;3.08;;;;;;;22.79;68.71;99174.42;1756821;80;21728;-78
2021/07/03 12:44:07;;;;;;;4.87;2.70;;;;;;;22.70;69.23;99161.06;1780277;80;21315;-79
2021/07/03 12:47:15;;;;;;;5.85;2.98;;;;;;;22.63;69.04;99180.05;1778583;80;21390;-78
2021/07/03 12:50:21;;;;;;;5.87;2.55;;;;;;;22.50;69.72;99188.16;1780461;80;21794;-79
2021/07/03 12:53:26;;;;;;;6.40;3.17;;;;;;;22.37;70.43;99172.86;1756431;80;21934;-79
2021/07/03 12:56:26;;;;;;;9.90;3.00;;;;;;;22.29;70.57;99168.67;1778001;80;21825;-78
2021/07/03 12:59:18;;;;;;;15.23;3.35;;;;;;;22.22;71.10;99171.49;1779546;80;21299;-79
2021/07/03 13:02:24;;;;;;;9.63;3.27;;;;;;;22.11;71.75;99163.16;1777739;80;22024;-78
2021/07/03 13:05:31;;;;;;;5.85;2.95;;;;;;;22.07;72.40;99162.00;1778119;80;21878;-78
2021/07/03 13:08:37;;;;;;;6.67;2.92;;;;;;;22.05;72.80;99146.68;1779533;80;21834;-78
2021/07/03 13:11:42;;;;;;;5.10;2.70;;;;;;;22.03;73.50;99152.53;1777984;80;21707;-78
2021/07/03 13:14:48;;;;;;;8.03;3.30;;;;;;;22.01;73.55;99140.00;1779226;80;21293;-78
2021/07/03 13:17:53;;;;;;;6.67;3.20;;;;;;;21.97;73.90;99128.58;1777983;80;21303;-79
2021/07/03 13:20:58;;;;;;;10.98;3.45;;;;;;;21.97;74.49;99131.36;1778106;80;21244;-78
2021/07/03 13:24:03;;;;;;;5.45;3.40;;;;;;;21.89;74.89;99130.55;1779464;80;21362;-78
2021/07/03 13:27:09;;;;;;;8.95;3.30;;;;;;;21.84;75.40;99127.77;1777944;80;22637;-78
2021/07/03 13:30:16;;;;;;;7.67;2.75;;;;;;;21.81;75.67;99115.80;1779567;80;21283;-79
2021/07/03 13:33:22;;;;;;;7.83;3.92;;;;;;;21.80;75.72;99117.75;1779478;80;21589;-79
2021/07/03 13:36:28;;;;;;;8.63;3.17;;;;;;;21.82;75.91;99123.02;1779482;80;21184;-78
2021/07/03 13:39:33;;;;;;;10.68;3.60;;;;;;;21.81;75.98;99118.02;1779308;80;21374;-78
2021/07/03 13:42:39;;;;;;;5.85;3.00;;;;;;;21.80;75.90;99123.87;1779351;80;21291;-78
2021/07/03 13:45:44;;;;;;;6.45;3.30;;;;;;;21.78;76.37;99124.13;1779632;80;21173;-78
2021/07/03 13:48:51;;;;;;;7.40;3.40;;;;;;;21.77;76.68;99118.86;1779492;80;21303;-78
2021/07/03 13:51:57;;;;;;;8.68;3.15;;;;;;;21.66;77.22;99092.42;1778040;80;21311;-79
2021/07/03 13:55:02;;;;;;;5.80;3.37;;;;;;;21.56;77.87;99072.95;1778062;80;21307;-78
2021/07/03 13:58:08;;;;;;;8.18;3.67;;;;;;;21.49;78.57;99072.38;1778526;80;21248;-78
2021/07/03 14:01:14;;;;;;;10.75;3.95;;;;;;;21.47;78.88;99108.56;1778134;80;21303;-79
2021/07/03 14:04:19;;;;;;;8.00;3.50;;;;;;;21.54;79.35;99118.28;1776490;80;21857;-79
2021/07/03 14:07:25;;;;;;;8.53;3.92;;;;;;;21.62;79.47;99124.70;1779019;80;21323;-78
2021/07/03 14:10:30;;;;;;;9.53;3.20;;;;;;;21.64;79.66;99121.62;1779524;80;21287;-79
2021/07/03 14:13:36;;;;;;;6.12;3.42;;;;;;;21.64;79.80;99124.41;1779475;80;21303;-79
2021/07/03 14:16:41;;;;;;;8.90;4.00;;;;;;;21.56;79.82;99118.86;1778037;80;21295;-78
2021/07/03 14:19:47;;;;;;;5.50;3.40;;;;;;;21.45;79.84;99125.50;1777980;80;21191;-78
2021/07/03 14:22:52;;;;;;;10.88;4.20;;;;;;;21.38;80.08;99120.23;1777858;80;21196;-78
2021/07/03 14:25:57;;;;;;;11.53;3.55;;;;;;;21.31;80.45;99125.77;1779163;80;21302;-78
2021/07/03 14:29:03;;;;;;;7.58;3.20;;;;;;;21.28;80.94;99130.48;1778077;80;21870;-79
2021/07/03 14:32:10;;;;;;;5.58;3.55;;;;;;;21.21;81.20;99119.59;1777934;80;21845;-79